Airfield :







YOU CAN JOIN US ON...

 
LOGIN :

Register | Disclaimer

   EN    FR    IT 

 









Legend :    VFR   Marginal VFR   IFR   Intensive IFR   Very Intensive IFR
Visi :
Ceiling :
>= 8 km
>= 3000ft
5 to 8 km
1000 to 3000 ft
1500m to 5 km
500 to 1000 ft
800 to 1500m
200 to 500 ft
< 800m
< 200 ft
Symbols :   Thunderstorms  Fog  Heavy snow  Heavy precipitations  Wind > 20 kt






- Airport Elevation : 84 ft
- IATA code : YJT


CYJT - Stephenville

CURRENT METAR :
  • 271000Z VRB02KT 15SM FEW027 14/13 A2997 RMK SC1 SC TR SLP153

EXPIRED METARs :
  • 270900Z 16005KT 15SM SCT026 BKN075 BKN200 14/13 A2996 RMK SC3AC2CI1 CI TR SLP149
  • 270800Z 16007KT 15SM OVC025 14/13 A2995 RMK SC8 SLP143

TAF TAF CYJT
Valid from the 27 at 06:00 until the 28 at 06:00 UTC


270541Z 2706/2806 18010KT P6SM FEW005 BKN020 OVC030
TEMPO 2706/2711 SCT020 OVC030
FM271100 18012G22KT P6SM SCT020
TEMPO 2711/2716 BKN020
FM271600 19015G25KT P6SM BKN020
FM271800 19015G25KT P6SM -SHRA OVC020
FM272200 16012KT 5SM -SHRA BR SCT008 OVC012
FM280300 20015KT 5SM -RA -DZ BR SCT008 OVC012
PROB30 2803/2805 2SM -DZ BR OVC008
FM280500 23012G22KT 2SM -RA -DZ BR OVC006
PROB40 2805/2806 1SM -DZ BR OVC003 RMK NXT FCST BY 271200Z
CZQX FIR / North America



MET'MAP, your aeronautical weather chart ! - Copyright ORBIFLY December 2007 - Disclaimer

ORBIFLY MET'MAP TEAM :

Programming & Development : Alexandra Zaïnal
Original concept : Baudouin d'Aumeries
Technical & hardware support : Manuel Goepfert
Assistance : Marc-Olivier Méhu




SOURCES & CREDITS :

   NOAA